Weather observations for the past three days for
Hillsville
Imperial (Metric)
Date Time (edt) Wind (mph) Vis. (mi.) Weather Sky Cond. Temperature (ºF) Relative Humidity Wind Chill (°F) Heat Index (°F) Pressure Precipitation (in)
Air Dwpt 6 hour altimeter (in) sea level (mb) 1 hr 3 hr 6 hr
Max. Min.
03 23:15 SE 5 10.00 Fair CLR 46.4 28.4 50% 45 30.03 0.0
03 22:55 SW 3 10.00 Fair CLR 50 26.6 40% 30.03 0.0
03 22:35 SW 6 10.00 Fair CLR 50 26.6 40% 48 30.03 0.0
03 22:15 W 6 10.00 Fair CLR 50 26.6 40% 48 30.04 0.0
03 21:55 S 5 10.00 Fair CLR 50 26.6 40% 49 30.02 0.0
03 21:35 W 5 10.00 Fair CLR 51.8 24.8 35% 30.03 0.0
03 21:15 W 3 10.00 Fair CLR 51.8 24.8 35% 30.02 0.0
03 20:55 W 3 10.00 Fair CLR 51.8 26.6 38% 30.01 0.0
03 20:35 W 3 10.00 Fair CLR 51.8 26.6 38% 30.01 0.0
03 20:15 W 3 10.00 Fair CLR 53.6 26.6 35% 30 0.0
03 19:55 NW 7 10.00 Fair CLR 55.4 24.8 31% 30 0.0
03 19:35 NW 9 10.00 Fair CLR 55.4 24.8 31% 30 0.0
03 19:15 W 8 10.00 Fair CLR 57.2 23 27% 29.99 0.0
03 18:55 W 9 10.00 Fair CLR 59 24.8 27% 29.99 0.0
03 18:35 NW 9 10.00 Fair CLR 59 23 25% 29.99 0.0
03 18:15 W 9 G 17 10.00 Fair CLR 59 21.2 23% 30 0.0
03 17:55 W 5 10.00 Fair CLR 59 23 25% 30 0.0
03 17:35 W 12 G 18 10.00 Fair CLR 59 23 25% 30 0.0
03 17:15 W 9 10.00 Fair CLR 59 24.8 27% 30.01 0.0
03 16:55 W 10 G 18 10.00 Fair CLR 59 23 25% 30.01 0.0
03 16:35 NW 9 10.00 Fair CLR 59 23 25% 30.01 0.0
03 16:15 NW 14 G 17 10.00 Fair CLR 59 21.2 23% 30.02 0.0
03 15:55 W 15 G 18 10.00 Fair CLR 55.4 21.2 26% 30.03 0.0
03 15:35 NW 9 G 18 10.00 Fair CLR 55.4 21.2 26% 30.04 0.0
03 14:55 NW 10 G 20 10.00 Fair CLR 53.6 19.4 26% 30.05 0.0
03 14:35 NW 10 G 16 10.00 Fair CLR 55.4 21.2 26% 30.05 0.0
03 14:15 NW 10 G 17 10.00 Fair CLR 53.6 21.2 28% 30.07 0.0
03 13:55 N 13 G 17 10.00 Fair CLR 53.6 23 30% 30.07 0.0
03 13:35 N 3 10.00 Fair CLR 51.8 23 32% 30.07 0.0
03 13:15 NW 12 G 18 10.00 Fair CLR 51.8 21.2 30% 30.08 0.0
03 12:55 NW 14 G 17 10.00 Fair CLR 50 19.4 30% 45 30.08 0.0
03 12:35 Calm 10.00 Fair CLR 50 21.2 32% 30.09 0.0
03 12:15 NW 8 G 18 10.00 Fair CLR 48.2 19.4 32% 45 30.1 0.0
03 11:55 NW 13 G 16 10.00 Fair CLR 48.2 19.4 32% 43 30.1 0.0
03 11:35 N 9 G 16 10.00 Fair CLR 46.4 21.2 37% 42 30.1 0.0
03 11:15 NW 8 10.00 Fair CLR 46.4 21.2 37% 43 30.1 0.0
03 10:55 NW 13 G 17 10.00 Fair CLR 44.6 19.4 37% 39 30.1 0.0
03 10:35 N 15 G 24 10.00 Fair CLR 44.6 21.2 39% 38 30.1 0.0
03 10:15 NW 16 G 20 10.00 Fair CLR 42.8 21.2 42% 36 30.1 0.0
03 09:55 NW 14 G 23 10.00 Fair CLR 42.8 21.2 42% 36 30.1 0.0
03 09:35 NW 17 G 24 10.00 Fair CLR 42.8 23 46% 35 30.09 0.0
03 09:15 NW 13 G 17 10.00 Fair CLR 41 23 49% 34 30.09 0.0
03 08:55 NW 14 G 20 10.00 Fair CLR 41 23 49% 34 30.09 0.0
03 08:35 NW 13 G 21 10.00 Fair CLR 39.2 24.8 56% 32 30.09 0.0
03 08:15 NW 10 10.00 Fair CLR 39.2 28.4 65% 33 30.08 0.0
03 07:55 NW 10 10.00 Fair CLR 37.4 28.4 70% 31 30.07 0.0
03 07:35 NW 9 10.00 Fair CLR 37.4 28.4 70% 31 30.07 0.0
03 07:15 NW 8 10.00 Fair CLR 35.6 28.4 75% 30 30.06 0.0
03 06:55 W 8 10.00 Fair CLR 35.6 30.2 81% 30 30.05 0.0
03 06:35 NW 10 10.00 Fair CLR 35.6 30.2 81% 29 30.03 0.0
03 06:15 NW 9 10.00 Fair CLR 35.6 30.2 81% 29 30.03 0.0
03 05:55 NW 7 10.00 Fair CLR 35.6 30.2 81% 31 30.03 0.0
03 05:35 W 3 10.00 Fair CLR 35.6 30.2 81% 30.02 0.0
03 05:15 SW 5 10.00 Fair CLR 35.6 30.2 81% 32 30.02 0.0
03 04:55 W 3 10.00 Fair CLR 35.6 30.2 81% 30.01 0.0
03 04:35 SW 5 10.00 Fair CLR 35.6 30.2 81% 32 30.01 0.0
03 04:15 SW 5 10.00 Fair CLR 35.6 30.2 81% 32 30 0.0
03 03:55 Calm 10.00 Fair CLR 37.4 30.2 75% 30 0.0
03 03:35 Calm 10.00 Fair CLR 39.2 30.2 70% 30 0.0
03 03:15 NW 7 10.00 Fair CLR 39.2 30.2 70% 35 29.98 0.0
03 02:55 NW 7 10.00 Fair CLR 39.2 30.2 70% 35 29.98 0.0
03 02:35 NW 8 10.00 Fair CLR 41 30.2 66% 36 29.98 0.0
03 02:15 NW 8 10.00 Fair CLR 41 30.2 66% 36 29.98 0.0
03 01:55 NW 8 10.00 Fair CLR 41 30.2 66% 36 29.98 0.0
03 01:35 NW 10 10.00 Fair CLR 41 28.4 61% 35 29.98 0.0
03 01:15 NW 9 10.00 Fair CLR 41 30.2 66% 36 29.98 0.0
03 00:55 NW 9 10.00 Fair CLR 41 28.4 61% 36 29.98 0.0
03 00:35 NW 9 10.00 Fair CLR 41 28.4 61% 36 29.98 0.0
03 00:15 NW 9 10.00 Fair CLR 42.8 28.4 57% 38 29.98 0.0
02 23:55 NW 8 10.00 Fair CLR 42.8 30.2 61% 39 29.97 0.0
02 23:35 NW 9 10.00 Fair CLR 42.8 30.2 61% 38 29.97 0.0
02 23:15 NW 10 10.00 Fair CLR 42.8 30.2 61% 38 29.97 0.0
02 22:55 NW 10 10.00 Fair CLR 42.8 30.2 61% 38 29.96 0.0
02 22:35 NW 12 G 16 10.00 Fair CLR 44.6 30.2 57% 39 29.96 0.0
02 22:15 NW 7 10.00 Fair CLR 44.6 28.4 53% 41 29.96 0.0
02 21:55 NW 10 10.00 Fair CLR 44.6 28.4 53% 40 29.96 0.0
02 21:35 NW 8 10.00 Fair CLR 44.6 30.2 57% 41 29.96 0.0
02 21:15 NW 10 10.00 Fair CLR 44.6 30.2 57% 40 29.95 0.0
02 20:55 NW 8 10.00 Fair CLR 44.6 30.2 57% 41 29.95 0.0
02 20:35 NW 8 10.00 Partly Cloudy SCT070 46.4 28.4 50% 43 29.95 0.0
02 20:15 NW 9 10.00 Mostly Cloudy SCT060 BKN070 46.4 28.4 50% 42 29.94 0.0
02 19:55 NW 13 10.00 Mostly Cloudy SCT060 BKN070 48.2 28.4 46% 43 29.93 0.0
02 19:35 NW 14 10.00 Overcast SCT060 OVC070 48.2 28.4 46% 43 29.92 0.0
02 19:15 NW 15 10.00 Overcast SCT055 SCT070 OVC080 50 28.4 43% 45 29.92 0.0
02 18:55 NW 12 10.00 Overcast SCT055 SCT070 OVC080 50 30.2 47% 46 29.92 0.0
02 18:35 NW 12 10.00 Overcast SCT070 OVC080 50 28.4 43% 46 29.91 0.0
02 18:15 NW 14 G 21 10.00 Overcast OVC070 51.8 28.4 41% 29.91 0.0
02 17:55 NW 15 G 20 10.00 Mostly Cloudy BKN080 51.8 28.4 41% 29.91 0.0
02 17:35 N 20 G 25 10.00 Partly Cloudy SCT070 51.8 30.2 44% 29.9 0.0
02 17:15 NW 15 G 24 10.00 Partly Cloudy SCT065 51.8 28.4 41% 29.89 0.0
02 16:55 NW 18 G 24 10.00 Mostly Cloudy BKN065 BKN075 53.6 28.4 38% 29.88 0.0
02 16:35 NW 20 G 26 10.00 Mostly Cloudy BKN065 BKN075 53.6 28.4 38% 29.88 0.0
02 16:15 N 16 10.00 Mostly Cloudy BKN065 53.6 28.4 38% 29.88 0.0
02 15:55 N 12 G 16 10.00 Overcast OVC065 55.4 28.4 36% 29.89 0.0
02 15:35 NW 16 G 21 10.00 Mostly Cloudy BKN065 BKN075 55.4 28.4 36% 29.89 0.0
02 15:15 NW 15 G 21 10.00 Mostly Cloudy BKN065 53.6 28.4 38% 29.88 0.0
02 14:55 NW 14 G 22 10.00 Mostly Cloudy BKN065 55.4 28.4 36% 29.88 0.0
02 14:35 N 15 G 21 10.00 Partly Cloudy SCT065 53.6 28.4 38% 29.89 0.0
02 14:15 W 12 G 22 10.00 Partly Cloudy SCT060 53.6 28.4 38% 29.89 0.0
02 13:55 N 10 G 20 10.00 Partly Cloudy SCT060 53.6 30.2 41% 29.91 0.0
02 13:35 NW 12 10.00 Fair CLR 51.8 28.4 41% 29.91 0.0
02 13:15 N 12 G 20 10.00 Fair CLR 51.8 28.4 41% 29.92 0.0
02 12:55 N 13 10.00 Fair CLR 51.8 30.2 44% 29.93 0.0
02 12:35 NW 10 G 17 10.00 Fair CLR 50 26.6 40% 46 29.94 0.0
02 12:15 N 16 G 22 10.00 Partly Cloudy SCT060 50 28.4 43% 45 29.94 0.0
02 11:55 N 15 G 22 10.00 Mostly Cloudy BKN060 50 28.4 43% 45 29.94 0.0
02 11:35 N 7 G 17 10.00 Mostly Cloudy BKN060 46.4 28.4 50% 43 29.95 0.0
02 11:15 NW 13 G 17 10.00 Partly Cloudy SCT060 44.6 28.4 53% 39 29.95 0.0
02 10:55 NW 12 10.00 Fair CLR 44.6 28.4 53% 39 29.95 0.0
02 10:35 NW 13 10.00 Fair CLR 44.6 30.2 57% 39 29.95 0.0
02 10:15 NW 12 10.00 Partly Cloudy SCT060 44.6 30.2 57% 39 29.95 0.0
02 09:55 NW 12 10.00 Mostly Cloudy BKN060 44.6 30.2 57% 39 29.95 0.0
02 09:35 N 10 10.00 Mostly Cloudy BKN060 44.6 30.2 57% 40 29.95 0.0
02 09:15 N 10 10.00 Mostly Cloudy BKN060 44.6 30.2 57% 40 29.95 0.0
02 08:55 NW 12 10.00 Overcast OVC060 42.8 30.2 61% 37 29.95 0.0
02 08:35 N 12 10.00 Mostly Cloudy BKN060 42.8 28.4 57% 37 29.95 0.0
02 08:15 N 10 10.00 Partly Cloudy SCT060 42.8 28.4 57% 38 29.94 0.0
02 07:55 N 10 10.00 Partly Cloudy SCT065 42.8 28.4 57% 38 29.95 0.0
02 07:35 N 8 10.00 Fair CLR 42.8 30.2 61% 39 29.94 0.0
02 07:15 N 8 10.00 Partly Cloudy SCT065 42.8 32 66% 39 29.94 0.0
02 06:55 N 9 10.00 Partly Cloudy SCT060 42.8 32 66% 38 29.92 0.0
02 06:35 N 9 10.00 Partly Cloudy SCT060 42.8 32 66% 38 29.93 0.0
02 06:15 N 10 10.00 Partly Cloudy SCT060 42.8 32 66% 38 29.93 0.0
02 05:55 N 10 10.00 Partly Cloudy SCT060 44.6 32 61% 40 29.93 0.0
02 05:35 N 10 G 17 10.00 Partly Cloudy SCT033 SCT060 44.6 33.8 66% 40 29.94 0.0
02 05:15 N 10 10.00 Mostly Cloudy SCT023 BKN031 44.6 35.6 71% 40 29.94 0.0
02 04:55 N 13 10.00 Overcast BKN023 OVC028 44.6 37.4 76% 39 29.94 0.0
02 04:35 N 9 10.00 Mostly Cloudy BKN023 46.4 37.4 71% 42 29.94 0.0
02 04:15 N 12 G 16 10.00 Fair CLR 44.6 37.4 76% 39 29.94 0.0
02 03:55 N 10 G 16 10.00 Fair CLR 44.6 37.4 76% 40 29.93 0.0
02 03:35 N 15 10.00 Fair CLR 46.4 37.4 71% 41 29.92 0.0
02 03:15 N 8 10.00 Fair CLR 46.4 37.4 71% 43 29.92 0.0
02 02:55 N 9 10.00 Fair CLR 46.4 37.4 71% 42 29.92 0.0
02 02:35 N 8 10.00 Partly Cloudy SCT065 46.4 37.4 71% 43 29.94 0.0
02 02:15 NW 8 10.00 Mostly Cloudy BKN065 46.4 37.4 71% 43 29.94 0.0
02 01:55 NW 10 10.00 Partly Cloudy SCT031 SCT065 48.2 37.4 66% 44 29.94 0.0
02 01:35 N 6 10.00 Partly Cloudy SCT065 48.2 39.2 71% 46 29.95 0.0
02 01:15 N 6 10.00 Fair CLR 48.2 39.2 71% 46 29.94 0.0
02 00:55 N 9 10.00 Fair CLR 50 41 71% 47 29.94 0.0
02 00:35 N 6 10.00 Fair CLR 50 41 71% 48 29.94 0.0
02 00:15 N 5 10.00 Fair CLR 50 41 71% 49 29.94 0.0
01 23:55 N 10 10.00 Fair CLR 50 41 71% 46 29.94 0.0
01 23:35 N 6 10.00 Fair CLR 50 41 71% 48 29.94 0.0
01 23:15 N 10 10.00 Partly Cloudy SCT060 51.8 39.2 62% 29.94 0.0
01 22:55 NW 12 G 16 10.00 Partly Cloudy SCT070 53.6 41 63% 29.93 0.0
01 22:35 SW 3 10.00 Partly Cloudy SCT070 53.6 42.8 67% 29.92 0.0
01 22:15 S 3 10.00 Fair CLR 53.6 41 63% 29.92 0.0
01 21:55 S 6 10.00 Fair CLR 53.6 41 63% 29.91 0.0
01 21:35 SW 5 10.00 Fair CLR 53.6 41 63% 29.89 0.0
01 21:15 S 5 10.00 Fair CLR 53.6 41 63% 29.9 0.0
01 20:55 SW 3 10.00 Fair CLR 53.6 41 63% 29.89 0.0
01 20:35 SW 7 10.00 Fair CLR 55.4 41 59% 29.87 0.0
01 20:15 Calm 10.00 Fair CLR 55.4 41 59% 29.87 0.0
01 19:55 S 6 10.00 Fair CLR 55.4 41 59% 29.87 0.0
01 19:35 Calm 10.00 Fair CLR 57.2 41 55% 29.86 0.0
01 19:15 S 3 10.00 Fair CLR 59 41 51% 29.86 0.0
01 18:55 S 8 10.00 Fair CLR 59 41 51% 29.86 0.0
01 18:35 S 3 10.00 Fair CLR 60.8 41 48% 29.86 0.0
01 18:15 S 9 10.00 Mostly Cloudy SCT075 BKN080 60.8 41 48% 29.86 0.0
01 17:55 S 8 10.00 Overcast OVC080 60.8 41 48% 29.86 0.0
01 17:35 SE 7 10.00 Overcast SCT070 OVC080 59 41 51% 29.87 0.0
01 17:15 S 6 10.00 Overcast BKN060 BKN080 OVC090 60.8 41 48% 29.87 0.0
01 16:55 S 8 10.00 Overcast SCT060 BKN070 OVC080 59 39.2 48% 29.87 0.0
01 16:35 S 6 10.00 Overcast BKN065 OVC075 59 39.2 48% 29.87 0.0
01 16:15 S 9 10.00 Overcast SCT055 BKN070 OVC075 59 39.2 48% 29.87 0.0
01 15:55 S 10 G 16 10.00 Overcast BKN055 OVC070 59 37.4 45% 29.89 0.0
01 15:35 S 12 10.00 Overcast BKN065 OVC075 59 37.4 45% 29.89 0.0
01 15:15 S 9 G 20 10.00 Overcast BKN065 OVC075 60.8 37.4 42% 29.9 0.0
01 14:55 S 10 G 20 10.00 Mostly Cloudy BKN065 60.8 39.2 45% 29.91 0.0
01 14:35 S 10 G 17 10.00 Fair CLR 60.8 41 48% 29.91 0.0
01 13:55 S 12 G 17 10.00 Fair CLR 59 37.4 45% 29.93 0.0
01 13:35 S 10 10.00 Fair CLR 59 37.4 45% 29.93 0.0
01 13:15 SW 10 G 21 10.00 Partly Cloudy SCT065 57.2 37.4 48% 29.95 0.0
01 12:55 S 10 10.00 Partly Cloudy SCT065 SCT100 57.2 39.2 51% 29.96 0.0
01 12:35 SE 9 10.00 Partly Cloudy SCT070 SCT100 55.4 37.4 51% 29.96 0.0
01 12:15 S 10 G 16 10.00 Mostly Cloudy BKN070 BKN085 55.4 37.4 51% 29.96 0.0
01 11:55 SE 10 10.00 Mostly Cloudy BKN070 BKN085 BKN100 53.6 35.6 51% 29.97 0.0
01 11:35 SE 7 G 16 10.00 Overcast BKN070 BKN080 OVC095 51.8 33.8 50% 29.97 0.0
01 11:15 S 9 10.00 Overcast SCT070 OVC095 51.8 32 47% 29.97 0.0
01 10:55 S 10 10.00 Overcast SCT095 OVC120 53.6 33.8 47% 29.97 0.0
01 10:35 S 9 10.00 Partly Cloudy SCT110 51.8 33.8 50% 29.98 0.0
01 10:15 S 7 10.00 Mostly Cloudy SCT075 BKN110 51.8 33.8 50% 29.98 0.0
01 09:55 SE 9 10.00 Partly Cloudy SCT075 SCT120 50 33.8 54% 47 29.98 0.0
01 09:35 S 5 10.00 Fair CLR 48.2 33.8 58% 47 29.97 0.0
01 09:15 SE 8 10.00 Fair CLR 46.4 35.6 66% 43 29.98 0.0
01 08:55 SE 5 10.00 Fair CLR 46.4 35.6 66% 45 29.98 0.0
01 08:35 Calm 10.00 Fair CLR 44.6 35.6 71% 29.98 0.0
01 08:15 Calm 10.00 Partly Cloudy SCT090 SCT120 44.6 35.6 71% 29.98 0.0
01 07:55 Calm 10.00 Mostly Cloudy BKN090 BKN120 42.8 37.4 81% 29.98 0.0
01 07:35 Calm 10.00 Overcast OVC080 42.8 35.6 76% 29.98 0.0
01 07:15 Calm 10.00 Mostly Cloudy BKN080 42.8 33.8 71% 29.98 0.0
01 06:55 Calm 10.00 Mostly Cloudy BKN090 42.8 33.8 71% 29.97 0.0
01 06:35 Calm 10.00 Overcast OVC090 41 33.8 76% 29.96 0.0
01 06:15 Calm 10.00 Mostly Cloudy BKN090 41 33.8 76% 29.96 0.0
01 05:55 Calm 10.00 Mostly Cloudy BKN090 42.8 32 66% 29.96 0.0
01 05:35 Calm 10.00 Mostly Cloudy BKN090 41 32 70% 29.95 0.0
01 05:15 Calm 10.00 Partly Cloudy SCT090 41 33.8 76% 29.96 0.0
01 04:55 Calm 10.00 Fair CLR 42.8 32 66% 29.96 0.0
01 04:35 Calm 10.00 Fair CLR 42.8 32 66% 29.96 0.0
01 04:15 Calm 10.00 Fair CLR 42.8 32 66% 29.96 0.0
01 03:55 N 6 10.00 Fair CLR 42.8 32 66% 40 29.96 0.0
01 03:35 N 6 10.00 Fair CLR 42.8 32 66% 40 29.96 0.0
01 03:15 Calm 10.00 Fair CLR 44.6 32 61% 29.96 0.0
01 02:55 N 8 10.00 Fair CLR 44.6 32 61% 41 29.96 0.0
01 02:35 N 6 10.00 Fair CLR 44.6 32 61% 42 29.96 0.0
01 02:15 N 13 10.00 Fair CLR 44.6 32 61% 39 29.96 0.0
01 01:55 N 5 10.00 Fair CLR 44.6 32 61% 43 29.96 0.0
01 01:35 N 10 10.00 Fair CLR 44.6 32 61% 40 29.95 0.0
01 01:15 N 14 10.00 Fair CLR 44.6 32 61% 39 29.95 0.0
01 00:55 N 17 G 23 10.00 Fair CLR 44.6 32 61% 38 29.96 0.0
01 00:35 N 16 10.00 Fair CLR 44.6 33.8 66% 38 29.96 0.0
01 00:15 N 9 10.00 Fair CLR 44.6 33.8 66% 40 29.97 0.0
30 23:55 N 15 10.00 Fair CLR 44.6 35.6 71% 38 29.96 0.0
30 23:35 N 9 10.00 Fair CLR 46.4 33.8 62% 42 29.97 0.0
Date Time (edt) Wind (mph) Vis. (mi.) Weather Sky Cond. Air Dwpt Max. Min. Relative Humidity Wind Chill (°F) Heat Index (°F) altimeter (in) sea level (mb) 1 hr 3 hr 6 hr
6 hour
Temperature (ºF) Pressure Precipitation (in)